Time;durP1;ratioP1;P1;durP2;ratioP2;P2;SDS_P1;SDS_P2;PMS_P1;PMS_P2;Temp;Humidity;BMP_temperature;BMP_pressure;BME280_temperature;BME280_humidity;BME280_pressure;Samples;Min_cycle;Max_cycle;Signal;HPM_P1;HPM_P2
2022/08/15 00:01:10;;;;;;;14.82;13.18;;;;;;;21.85;63.86;100029.97;5064395;28;20096;-56
2022/08/15 00:03:43;;;;;;;15.07;12.27;;;;;;;21.82;64.24;100027.53;5062377;28;20027;-55
2022/08/15 00:06:13;;;;;;;13.07;11.77;;;;;;;22.12;63.90;100084.59;5065176;28;20043;-55
2022/08/15 00:08:43;;;;;;;15.27;11.88;;;;;;;21.84;64.05;100032.72;5060277;28;20265;-55
2022/08/15 00:11:31;;;;;;;16.38;12.32;;;;;;;21.83;64.15;100034.53;5059078;28;20093;-55
2022/08/15 00:14:06;;;;;;;13.32;11.43;;;;;;;22.10;64.27;100094.38;5064168;28;20029;-55
2022/08/15 00:16:36;;;;;;;12.70;10.88;;;;;;;21.82;64.02;100030.19;5073363;28;20029;-55
2022/08/15 00:19:12;;;;;;;13.00;11.60;;;;;;;21.81;64.06;100031.13;5065258;28;20360;-54
2022/08/15 00:21:43;;;;;;;12.93;11.50;;;;;;;22.06;63.94;100072.63;5069375;28;20055;-55
2022/08/15 00:24:10;;;;;;;;;;;;;;;22.08;64.97;100080.44;5078112;28;20071;-54
2022/08/15 00:26:35;;;;;;;12.38;11.23;;;;;;;22.07;64.32;100076.09;5061344;28;19951;-55
2022/08/15 00:29:03;;;;;;;13.30;11.93;;;;;;;21.98;64.92;100084.59;5063706;28;20013;-55
2022/08/15 00:31:31;;;;;;;15.77;12.70;;;;;;;22.01;64.17;100089.69;5061205;28;20205;-54
2022/08/15 00:33:58;;;;;;;16.92;12.65;;;;;;;22.03;64.20;100091.28;5063510;28;20348;-54
2022/08/15 00:36:25;;;;;;;13.18;11.77;;;;;;;21.96;64.89;100078.56;5063315;28;20021;-54
2022/08/15 00:38:51;;;;;;;17.70;13.38;;;;;;;22.01;64.37;100093.16;5063926;28;20076;-54
2022/08/15 00:44:08;;;;;;;16.50;13.02;;;;;;;21.77;64.85;100041.97;5060994;28;20029;-54
2022/08/15 00:46:34;;;;;;;16.92;13.10;;;;;;;21.89;64.68;100078.97;5062527;28;20020;-54
2022/08/15 00:48:59;;;;;;;14.23;12.82;;;;;;;21.97;64.56;100094.28;5063562;28;20056;-54
2022/08/15 00:51:56;;;;;;;18.30;13.25;;;;;;;21.96;65.55;100095.25;5061847;28;20017;-54
2022/08/15 00:54:45;;;;;;;15.48;13.50;;;;;;;21.90;64.99;100098.25;5051421;28;20067;-55
2022/08/15 00:57:16;;;;;;;17.60;15.20;;;;;;;21.84;65.43;100094.22;5056249;28;20248;-55
2022/08/15 00:59:47;;;;;;;16.38;14.68;;;;;;;21.85;65.17;100092.44;5056060;28;20364;-55
2022/08/15 01:02:15;;;;;;;17.85;14.25;;;;;;;21.76;65.31;100075.38;5070485;28;20064;-55
2022/08/15 01:04:42;;;;;;;20.52;16.10;;;;;;;21.78;66.21;100096.41;5062627;28;20059;-54
2022/08/15 01:07:09;;;;;;;19.23;14.93;;;;;;;21.64;66.21;100060.34;5052505;28;20079;-54
2022/08/15 01:09:36;;;;;;;18.45;14.45;;;;;;;21.84;65.24;100096.00;5059153;28;20052;-54
2022/08/15 01:12:16;;;;;;;16.20;13.52;;;;;;;21.85;66.47;100093.28;5063511;28;20345;-55
2022/08/15 01:14:46;;;;;;;22.42;14.55;;;;;;;21.80;66.16;100092.69;5062522;28;20044;-54
2022/08/15 01:17:14;;;;;;;18.45;14.95;;;;;;;21.45;66.62;100055.28;5062150;28;20285;-54
2022/08/15 01:19:56;;;;;;;18.00;14.73;;;;;;;21.75;66.26;100105.34;5060754;28;20029;-55
2022/08/15 01:22:30;;;;;;;17.63;15.32;;;;;;;21.32;67.67;100065.72;5066311;28;20060;-55
2022/08/15 01:25:17;;;;;;;21.05;14.60;;;;;;;21.45;67.27;100066.69;5062748;28;20070;-55
2022/08/15 01:27:50;;;;;;;16.40;14.63;;;;;;;21.39;67.24;100061.78;5069978;28;20360;-54
2022/08/15 01:30:19;;;;;;;16.05;14.35;;;;;;;21.60;67.78;100120.28;5066977;28;20082;-55
2022/08/15 01:32:46;;;;;;;15.38;13.85;;;;;;;21.64;67.28;100108.63;5061745;28;20025;-55
2022/08/15 01:35:13;;;;;;;17.38;14.68;;;;;;;21.51;68.16;100107.66;5049335;28;20040;-54
2022/08/15 01:37:41;;;;;;;16.60;14.07;;;;;;;21.37;67.82;100074.22;5051450;28;20044;-54
2022/08/15 01:40:42;;;;;;;15.95;14.25;;;;;;;21.54;68.67;100110.13;5051328;28;20148;-54
2022/08/15 01:43:11;;;;;;;19.03;14.83;;;;;;;21.17;68.67;100060.44;5058465;28;20033;-54
2022/08/15 01:45:41;;;;;;;16.15;14.45;;;;;;;21.55;68.21;100109.19;5061900;28;20017;-54
2022/08/15 01:48:17;;;;;;;16.20;13.57;;;;;;;21.24;68.25;100062.72;5064298;28;20033;-54
2022/08/15 01:50:50;;;;;;;16.55;14.75;;;;;;;21.07;69.01;100061.94;5063142;28;20032;-54
2022/08/15 01:53:24;;;;;;;19.92;15.23;;;;;;;21.37;69.03;100122.47;5072659;28;20278;-54
2022/08/15 01:56:07;;;;;;;22.90;15.95;;;;;;;21.04;69.08;100072.66;5060693;28;20063;-54
2022/08/15 01:58:37;;;;;;;20.98;15.90;;;;;;;21.28;69.63;100123.03;5047702;28;20056;-54
2022/08/15 02:01:13;;;;;;;19.73;14.90;;;;;;;21.33;69.19;100120.13;5045597;28;20218;-54
2022/08/15 02:03:41;;;;;;;16.90;14.43;;;;;;;21.35;69.31;100128.81;5056051;28;20221;-54
2022/08/15 02:06:23;;;;;;;16.75;14.10;;;;;;;21.43;69.53;100133.59;5059623;28;20024;-54
2022/08/15 02:08:51;;;;;;;;;;;;;;;21.21;69.88;100122.53;5043278;28;20017;-54
2022/08/15 02:11:21;;;;;;;18.02;15.50;;;;;;;20.80;70.30;100080.19;5051973;28;19905;-54
2022/08/15 02:13:49;;;;;;;19.05;15.55;;;;;;;20.99;70.65;100137.91;5054718;28;20032;-54
2022/08/15 02:16:16;;;;;;;19.83;14.50;;;;;;;21.16;69.90;100129.88;5058639;28;20245;-54
2022/08/15 02:18:42;;;;;;;16.80;14.82;;;;;;;21.27;69.50;100126.59;5055359;28;20029;-54
2022/08/15 02:21:08;;;;;;;15.77;14.07;;;;;;;21.30;69.68;100128.22;5063996;28;20032;-54
2022/08/15 02:23:34;;;;;;;17.05;13.63;;;;;;;21.35;69.51;100134.91;5062909;28;20058;-55
2022/08/15 02:26:01;;;;;;;18.60;16.08;;;;;;;21.21;69.94;100133.09;5061548;28;20024;-55
2022/08/15 02:28:27;;;;;;;18.75;15.43;;;;;;;21.20;69.86;100134.00;5075227;28;20033;-54
2022/08/15 02:30:53;;;;;;;21.40;17.05;;;;;;;21.16;69.96;100127.25;5053716;28;20022;-55
2022/08/15 02:33:20;;;;;;;16.92;15.07;;;;;;;21.17;69.91;100130.72;5055702;28;20036;-55
2022/08/15 02:35:46;;;;;;;20.83;15.23;;;;;;;21.17;70.33;100133.34;5046685;28;20030;-55
2022/08/15 02:38:11;;;;;;;19.23;16.65;;;;;;;20.98;71.29;100131.78;5046895;28;20317;-54
2022/08/15 02:40:37;;;;;;;21.90;17.80;;;;;;;20.90;71.48;100138.44;5056922;28;20037;-54
2022/08/15 02:43:11;;;;;;;20.48;17.27;;;;;;;20.75;71.57;100108.56;5065128;28;20025;-54
2022/08/15 02:45:39;;;;;;;20.70;16.77;;;;;;;20.72;71.90;100112.22;5065092;28;20317;-54
2022/08/15 02:48:10;;;;;;;22.30;17.92;;;;;;;20.80;72.44;100138.13;5066892;28;20029;-54
2022/08/15 02:50:38;;;;;;;19.95;16.80;;;;;;;20.88;72.14;100140.28;5065504;28;20025;-54
2022/08/15 02:53:13;;;;;;;22.20;17.75;;;;;;;20.91;71.87;100143.63;5054268;28;20032;-54
2022/08/15 02:55:45;;;;;;;26.02;16.95;;;;;;;20.60;72.08;100099.72;5066156;28;20040;-55
2022/08/15 02:58:12;;;;;;;18.75;16.77;;;;;;;20.97;71.78;100147.69;5063102;28;20023;-55
2022/08/15 03:00:41;;;;;;;22.02;17.20;;;;;;;20.85;72.08;100142.19;5071495;28;20060;-55
2022/08/15 03:03:11;;;;;;;20.90;17.55;;;;;;;20.79;72.66;100170.63;5069211;28;20032;-55
2022/08/15 03:05:40;;;;;;;23.77;21.30;;;;;;;20.61;73.72;100154.06;5045846;28;20030;-55
2022/08/15 03:08:06;;;;;;;25.92;23.33;;;;;;;20.79;72.77;100162.72;5062986;28;20024;-55
2022/08/15 03:10:32;;;;;;;27.05;22.08;;;;;;;20.59;73.80;100161.19;5059537;28;20039;-54
2022/08/15 03:13:04;;;;;;;27.33;22.05;;;;;;;20.72;73.52;100156.97;5059878;28;20080;-54
2022/08/15 03:15:42;;;;;;;24.10;21.45;;;;;;;20.45;73.24;100111.94;5064191;28;20041;-55
2022/08/15 03:18:09;;;;;;;27.92;20.15;;;;;;;20.77;73.26;100160.19;5064819;28;20033;-55
2022/08/15 03:20:36;;;;;;;21.63;18.83;;;;;;;20.76;73.25;100161.13;5064735;28;20041;-55
2022/08/15 03:23:04;;;;;;;21.55;19.25;;;;;;;20.80;73.14;100157.38;5064957;28;20284;-54
2022/08/15 03:25:30;;;;;;;20.85;18.73;;;;;;;20.64;73.82;100153.91;5064986;28;20037;-54
2022/08/15 03:27:56;;;;;;;23.00;18.85;;;;;;;20.75;73.50;100154.19;5064696;28;20063;-54
2022/08/15 03:30:22;;;;;;;18.48;16.42;;;;;;;20.96;72.29;100140.72;5061588;28;20068;-54
2022/08/15 03:32:56;;;;;;;24.45;18.42;;;;;;;20.65;72.69;100109.06;5049470;28;20028;-54
2022/08/15 03:35:25;;;;;;;22.00;19.55;;;;;;;20.44;73.75;100111.13;5085047;28;20047;-54
2022/08/15 03:37:50;;;;;;;20.70;18.58;;;;;;;20.76;73.61;100150.59;5071951;28;20040;-54
2022/08/15 03:40:16;;;;;;;18.60;16.65;;;;;;;21.07;72.88;100171.72;5071691;28;20036;-54
2022/08/15 03:42:59;;;;;;;20.50;18.20;;;;;;;20.94;73.13;100176.84;5069441;28;20073;-54
2022/08/15 03:45:26;;;;;;;20.83;18.73;;;;;;;20.77;72.94;100123.34;5064111;28;20036;-55
2022/08/15 03:47:53;;;;;;;20.17;17.90;;;;;;;20.98;73.35;100166.03;5064674;28;20375;-54
2022/08/15 03:50:20;;;;;;;22.10;19.80;;;;;;;20.89;73.59;100170.97;5059067;28;20029;-54
2022/08/15 03:52:51;;;;;;;21.38;18.30;;;;;;;21.12;72.98;100172.28;5060282;28;20040;-55
2022/08/15 03:55:18;;;;;;;22.40;19.15;;;;;;;20.97;72.92;100172.22;5064937;28;20031;-55
2022/08/15 03:57:44;;;;;;;21.73;18.77;;;;;;;21.06;73.15;100167.38;5064890;28;20277;-55
2022/08/15 04:00:13;;;;;;;22.50;20.00;;;;;;;21.08;73.37;100162.84;5063356;28;20328;-55
2022/08/15 04:02:39;;;;;;;24.05;19.60;;;;;;;21.19;72.74;100150.78;5064508;28;20075;-55
2022/08/15 04:05:07;;;;;;;20.40;17.65;;;;;;;21.44;71.91;100157.22;5062680;28;20033;-55
2022/08/15 04:07:35;;;;;;;21.38;17.45;;;;;;;21.55;71.28;100154.84;5059469;28;20040;-55
2022/08/15 04:10:09;;;;;;;21.10;18.70;;;;;;;21.58;71.47;100177.53;5067915;28;20033;-54
2022/08/15 04:12:40;;;;;;;21.98;18.10;;;;;;;21.67;71.24;100163.78;5062258;28;20021;-56
2022/08/15 04:15:10;;;;;;;24.23;20.90;;;;;;;21.44;71.56;100151.13;5063572;28;20031;-57
2022/08/15 04:17:35;;;;;;;26.85;19.52;;;;;;;21.59;71.68;100166.06;5063166;28;20119;-55
2022/08/15 04:20:02;;;;;;;21.75;19.13;;;;;;;21.77;71.12;100172.00;5079388;28;20255;-55
2022/08/15 04:22:36;;;;;;;20.48;16.77;;;;;;;21.67;70.38;100120.78;5052016;28;20026;-55
2022/08/15 04:25:07;;;;;;;21.23;18.35;;;;;;;22.02;70.19;100162.59;5054478;28;20209;-55
2022/08/15 04:27:32;;;;;;;22.42;19.90;;;;;;;22.11;69.75;100161.19;5061300;28;20029;-56
2022/08/15 04:29:58;;;;;;;21.95;19.65;;;;;;;22.18;69.48;100159.88;5063610;28;20047;-55
2022/08/15 04:32:26;;;;;;;20.38;18.20;;;;;;;22.28;69.52;100160.13;5060847;28;20264;-55
2022/08/15 04:34:52;;;;;;;28.23;20.67;;;;;;;22.36;68.92;100168.44;5048619;28;20052;-55
2022/08/15 04:37:17;;;;;;;28.65;22.70;;;;;;;22.28;68.49;100163.63;5055412;28;20044;-55
2022/08/15 04:39:43;;;;;;;26.20;23.42;;;;;;;22.36;67.94;100163.16;5058606;28;20048;-55
2022/08/15 04:42:09;;;;;;;27.27;21.40;;;;;;;22.53;67.87;100165.59;5063999;28;20028;-55
2022/08/15 04:44:36;;;;;;;24.80;20.58;;;;;;;22.55;68.19;100165.50;5062318;28;20104;-55
2022/08/15 04:47:02;;;;;;;24.67;22.02;;;;;;;22.60;67.33;100155.47;5058432;28;20388;-55
2022/08/15 04:49:28;;;;;;;29.63;24.38;;;;;;;22.66;66.61;100154.22;5063994;28;20024;-56
2022/08/15 04:51:53;;;;;;;30.33;23.27;;;;;;;22.82;66.64;100157.59;5064119;28;20028;-55
2022/08/15 04:54:19;;;;;;;31.95;22.88;;;;;;;22.88;67.02;100154.53;5059535;28;20037;-55
2022/08/15 04:56:45;;;;;;;30.02;23.77;;;;;;;22.80;65.84;100151.53;5058193;28;20052;-55
2022/08/15 04:59:10;;;;;;;29.25;24.05;;;;;;;22.92;66.49;100156.03;5062888;28;20195;-55
2022/08/15 05:01:36;;;;;;;32.88;23.98;;;;;;;22.96;64.68;100155.81;5061188;28;20032;-54
2022/08/15 05:04:01;;;;;;;29.67;21.13;;;;;;;22.98;62.86;100159.22;5061396;28;20021;-54
2022/08/15 05:06:27;;;;;;;28.95;20.88;;;;;;;23.22;61.33;100156.78;5060294;28;20033;-54
2022/08/15 05:08:53;;;;;;;30.63;20.17;;;;;;;23.65;61.76;100159.16;5047949;28;20025;-54
2022/08/15 05:11:20;;;;;;;22.60;18.85;;;;;;;24.00;61.39;100163.84;5062885;28;20252;-54
2022/08/15 05:13:46;;;;;;;22.00;17.70;;;;;;;24.34;60.41;100165.88;5062055;28;20021;-54
2022/08/15 05:16:12;;;;;;;24.23;19.15;;;;;;;24.30;58.22;100163.47;5065554;28;20102;-54
2022/08/15 05:18:39;;;;;;;21.48;17.42;;;;;;;24.35;58.39;100159.66;5058199;28;20028;-54
2022/08/15 05:23:51;;;;;;;22.50;17.17;;;;;;;24.75;57.97;100159.44;5071923;28;20278;-53
2022/08/15 05:26:17;;;;;;;22.90;17.55;;;;;;;24.82;58.88;100160.66;5063160;28;20025;-54
2022/08/15 05:28:43;;;;;;;21.17;16.60;;;;;;;24.77;57.48;100152.19;5061464;28;20056;-54
2022/08/15 05:31:10;;;;;;;20.63;15.85;;;;;;;24.70;57.26;100158.91;5059229;28;20059;-54
2022/08/15 05:33:36;;;;;;;21.50;16.27;;;;;;;24.55;56.52;100151.09;5058261;28;20021;-54
2022/08/15 05:36:05;;;;;;;16.83;13.80;;;;;;;24.91;56.30;100167.09;5047469;28;20033;-54
2022/08/15 05:38:38;;;;;;;16.20;14.10;;;;;;;24.71;55.98;100140.28;5050820;28;20044;-55
2022/08/15 05:41:26;;;;;;;13.43;11.98;;;;;;;24.64;54.95;100162.84;5046631;28;20052;-55
2022/08/15 05:44:05;;;;;;;13.27;9.65;;;;;;;24.42;54.52;100111.41;5056878;28;20040;-55
2022/08/15 05:46:46;;;;;;;17.77;12.02;;;;;;;24.79;54.44;100155.59;5061112;28;20044;-54
2022/08/15 05:49:36;;;;;;;14.50;11.63;;;;;;;24.57;54.34;100104.19;5061575;28;20036;-54
2022/08/15 05:52:17;;;;;;;12.73;10.68;;;;;;;24.78;54.25;100151.25;5060092;28;20025;-54
2022/08/15 05:54:58;;;;;;;13.23;9.40;;;;;;;24.80;52.97;100152.84;5066112;28;20095;-55
2022/08/15 05:57:33;;;;;;;9.90;8.90;;;;;;;24.90;52.76;100134.47;5064502;28;20279;-54
2022/08/15 06:00:13;;;;;;;11.20;7.95;;;;;;;25.02;52.51;100131.84;5059241;28;20262;-54
2022/08/15 06:02:59;;;;;;;9.43;7.95;;;;;;;25.11;52.46;100139.97;5055825;28;20100;-54
2022/08/15 06:05:39;;;;;;;9.63;6.80;;;;;;;25.13;50.38;100153.94;5062813;28;20021;-54
2022/08/15 06:08:20;;;;;;;7.35;6.55;;;;;;;24.94;51.30;100093.53;5045615;28;20056;-54
2022/08/15 06:10:52;;;;;;;7.22;6.43;;;;;;;24.99;50.79;100098.47;5050301;28;20029;-54
2022/08/15 06:13:20;;;;;;;6.90;6.03;;;;;;;25.42;51.10;100142.13;5054310;28;20041;-54
2022/08/15 06:16:16;;;;;;;7.65;5.15;;;;;;;25.19;48.57;100152.63;5061742;28;20091;-54
2022/08/15 06:18:43;;;;;;;9.43;5.28;;;;;;;25.13;48.90;100113.34;5065447;28;20169;-54
2022/08/15 06:21:24;;;;;;;7.95;5.13;;;;;;;25.50;48.68;100145.88;5062113;28;20089;-54
2022/08/15 06:24:27;;;;;;;7.60;5.23;;;;;;;25.58;49.02;100140.00;5058856;28;20453;-53
2022/08/15 06:27:22;;;;;;;6.60;4.65;;;;;;;25.54;48.86;100130.56;5045431;28;20025;-53
2022/08/15 06:29:56;;;;;;;5.60;4.78;;;;;;;25.75;47.96;100148.44;5062158;28;20029;-54
2022/08/15 06:32:41;;;;;;;5.13;4.30;;;;;;;25.55;47.59;100104.88;5050454;28;20029;-54
2022/08/15 06:35:37;;;;;;;5.38;3.80;;;;;;;25.77;47.30;100151.81;5053758;28;20029;-55
2022/08/15 06:38:35;;;;;;;7.72;4.28;;;;;;;25.77;47.31;100141.22;5046082;28;20308;-53
2022/08/15 06:41:22;;;;;;;8.20;3.70;;;;;;;25.92;47.01;100150.59;5056697;28;20048;-54
2022/08/15 06:43:49;;;;;;;5.57;3.60;;;;;;;25.98;46.62;100151.94;5059624;28;20084;-54
2022/08/15 06:46:15;;;;;;;3.10;2.80;;;;;;;25.79;45.99;100156.03;5061439;28;20040;-54
2022/08/15 06:48:42;;;;;;;5.28;3.20;;;;;;;25.98;46.09;100150.13;5057511;28;20221;-53
2022/08/15 06:51:10;;;;;;;5.30;3.40;;;;;;;26.20;46.69;100155.59;5058498;28;20055;-53
2022/08/15 06:53:54;;;;;;;3.60;3.30;;;;;;;25.91;46.01;100109.13;5057737;28;20332;-54
2022/08/15 06:56:29;;;;;;;6.30;3.67;;;;;;;26.39;46.37;100157.63;5051684;28;20344;-54
2022/08/15 06:59:16;;;;;;;4.90;3.85;;;;;;;26.42;45.73;100162.69;5053299;28;20041;-54
2022/08/15 07:01:51;;;;;;;5.18;3.70;;;;;;;26.30;44.81;100157.38;5074701;28;20498;-55
2022/08/15 07:04:45;;;;;;;5.47;3.40;;;;;;;26.45;44.96;100167.72;5051376;28;20053;-54
2022/08/15 07:07:27;;;;;;;5.10;3.53;;;;;;;26.40;44.60;100136.25;5059056;28;20030;-53
2022/08/15 07:09:53;;;;;;;5.43;3.30;;;;;;;26.63;44.99;100163.59;5064242;28;20044;-54
2022/08/15 07:12:27;;;;;;;6.50;3.88;;;;;;;26.44;44.44;100120.91;5043606;28;20029;-56
2022/08/15 07:15:15;;;;;;;9.10;3.80;;;;;;;26.68;43.59;100147.28;5060347;28;20143;-54
2022/08/15 07:18:00;;;;;;;7.57;4.35;;;;;;;26.31;44.00;100113.09;5058290;28;20033;-54
2022/08/15 07:20:26;;;;;;;6.07;4.03;;;;;;;26.85;44.22;100157.41;5066513;28;20037;-54
2022/08/15 07:22:52;;;;;;;5.80;3.67;;;;;;;26.93;43.75;100171.88;5071287;28;20346;-54
2022/08/15 07:25:25;;;;;;;5.35;3.55;;;;;;;26.61;42.54;100108.88;5064828;28;20045;-54
2022/08/15 07:27:58;;;;;;;4.28;3.85;;;;;;;26.37;42.65;100128.53;5064878;28;20029;-54
2022/08/15 07:30:50;;;;;;;4.55;3.47;;;;;;;26.60;41.85;100178.97;5063462;28;20029;-54
2022/08/15 07:33:30;;;;;;;4.85;3.58;;;;;;;26.78;42.38;100174.84;5053957;28;20021;-54
2022/08/15 07:36:13;;;;;;;6.13;3.75;;;;;;;26.93;42.50;100182.50;5053491;28;20029;-54
2022/08/15 07:38:39;;;;;;;5.10;3.40;;;;;;;26.63;41.39;100166.25;5045397;28;20103;-54
2022/08/15 07:41:15;;;;;;;4.93;3.10;;;;;;;26.65;40.75;100171.44;5048652;28;20313;-54
2022/08/15 07:43:41;;;;;;;4.97;3.65;;;;;;;26.74;41.11;100159.28;5064839;28;20217;-54
2022/08/15 07:46:40;;;;;;;7.38;3.47;;;;;;;26.75;40.46;100167.13;5062916;28;20024;-54
2022/08/15 07:49:19;;;;;;;6.82;3.20;;;;;;;26.50;38.91;100121.22;5058283;28;20318;-54
2022/08/15 07:52:05;;;;;;;5.28;3.55;;;;;;;26.62;39.90;100169.91;5063351;28;20032;-55
2022/08/15 07:54:45;;;;;;;6.93;3.90;;;;;;;26.77;40.58;100154.53;5063883;28;20036;-56
2022/08/15 07:57:26;;;;;;;9.13;3.92;;;;;;;26.87;41.02;100166.09;5056092;28;20104;-56
2022/08/15 08:00:10;;;;;;;5.93;3.90;;;;;;;26.81;40.64;100157.78;5062113;28;20078;-56
2022/08/15 08:03:09;;;;;;;5.68;3.40;;;;;;;26.92;40.08;100160.41;5061603;28;20461;-56
2022/08/15 08:05:51;;;;;;;4.55;3.53;;;;;;;26.72;41.03;100119.50;5042748;28;20045;-57
2022/08/15 08:08:19;;;;;;;5.30;4.00;;;;;;;26.79;40.91;100157.06;5078715;28;20043;-57
2022/08/15 08:10:59;;;;;;;6.97;3.63;;;;;;;26.77;41.31;100124.47;5072651;28;20037;-57
2022/08/15 08:13:40;;;;;;;5.18;3.97;;;;;;;26.97;40.63;100162.69;5061161;28;20116;-57
2022/08/15 08:16:20;;;;;;;5.27;4.43;;;;;;;27.02;41.07;100157.81;5063026;28;20056;-57
2022/08/15 08:19:19;;;;;;;8.25;4.38;;;;;;;27.31;41.03;100165.19;5057596;28;20036;-58
2022/08/15 08:21:57;;;;;;;5.32;3.67;;;;;;;26.82;40.93;100120.44;5060300;28;20108;-57
2022/08/15 08:24:50;;;;;;;5.05;3.72;;;;;;;27.30;40.68;100153.69;5056872;28;20025;-57
2022/08/15 08:27:25;;;;;;;8.07;4.00;;;;;;;27.33;41.13;100164.06;5057929;28;20037;-56
2022/08/15 08:30:04;;;;;;;4.53;2.70;;;;;;;27.21;38.59;100162.44;5049793;28;20099;-57
2022/08/15 08:33:09;;;;;;;5.03;2.95;;;;;;;27.14;38.75;100162.13;5061334;28;20032;-56
2022/08/15 08:36:06;;;;;;;5.65;3.03;;;;;;;26.94;37.83;100158.47;5056501;28;20024;-57
2022/08/15 08:38:39;;;;;;;4.97;2.88;;;;;;;27.18;37.95;100168.03;5062321;28;20053;-56
2022/08/15 08:41:25;;;;;;;3.80;2.88;;;;;;;27.24;38.62;100158.69;5034727;28;20033;-56
2022/08/15 08:44:14;;;;;;;3.92;2.75;;;;;;;27.38;37.57;100153.91;5060745;28;20036;-56
2022/08/15 08:46:58;;;;;;;3.05;2.75;;;;;;;27.57;37.75;100155.00;5057787;28;20210;-56
2022/08/15 08:50:01;;;;;;;3.80;2.70;;;;;;;27.60;37.49;100153.91;5055697;28;20033;-56
2022/08/15 08:53:07;;;;;;;4.22;3.17;;;;;;;27.83;37.41;100154.59;5054999;28;20053;-56
2022/08/15 08:55:50;;;;;;;3.97;2.88;;;;;;;27.55;37.94;100115.22;5039882;28;20317;-56
2022/08/15 08:58:26;;;;;;;5.15;2.55;;;;;;;27.67;38.58;100115.97;5053139;28;20051;-57
2022/08/15 09:00:53;;;;;;;4.03;2.85;;;;;;;27.62;36.69;100147.47;5063725;28;20024;-57
2022/08/15 09:03:49;;;;;;;3.80;2.83;;;;;;;27.89;38.84;100144.25;5062958;28;20017;-56
2022/08/15 09:06:23;;;;;;;4.43;2.92;;;;;;;27.54;37.66;100102.06;5057106;28;20041;-56
2022/08/15 09:09:06;;;;;;;4.65;2.67;;;;;;;28.16;37.98;100144.66;5058753;28;20031;-57
2022/08/15 09:11:47;;;;;;;4.28;2.65;;;;;;;27.93;37.00;100104.88;5054899;28;20032;-56
2022/08/15 09:14:42;;;;;;;5.25;3.50;;;;;;;28.38;37.70;100149.75;5061302;28;20353;-57
2022/08/15 09:17:13;;;;;;;4.88;3.03;;;;;;;28.59;37.93;100140.84;5057180;28;20664;-57
2022/08/15 09:20:05;;;;;;;6.50;3.13;;;;;;;28.51;36.63;100133.50;5056599;28;20033;-57
2022/08/15 09:22:31;;;;;;;7.22;3.45;;;;;;;28.80;37.26;100139.88;5059297;28;20090;-57
2022/08/15 09:24:56;;;;;;;7.03;3.20;;;;;;;28.72;37.19;100143.25;5060819;28;20314;-56
2022/08/15 09:27:32;;;;;;;4.80;3.13;;;;;;;28.23;37.17;100136.00;5060624;28;20032;-56
2022/08/15 09:30:06;;;;;;;4.95;3.28;;;;;;;27.93;36.78;100091.56;5062338;28;20036;-56
2022/08/15 09:32:55;;;;;;;5.65;3.25;;;;;;;28.46;38.52;100137.56;5051371;28;20017;-56
2022/08/15 09:35:43;;;;;;;6.97;3.10;;;;;;;28.54;37.63;100137.72;5051827;28;20057;-56
2022/08/15 09:38:32;;;;;;;11.63;4.78;;;;;;;28.42;39.15;100142.34;5057550;28;20045;-56
2022/08/15 09:41:22;;;;;;;7.55;3.70;;;;;;;28.39;39.11;100140.78;5052375;28;20029;-56
2022/08/15 09:44:09;;;;;;;6.40;3.03;;;;;;;28.07;36.55;100135.66;5054890;28;20030;-56
2022/08/15 09:46:37;;;;;;;8.45;3.25;;;;;;;28.23;37.58;100136.00;5057790;28;20021;-57
2022/08/15 09:49:32;;;;;;;6.32;3.05;;;;;;;28.21;37.33;100135.28;5059033;28;20309;-57
2022/08/15 09:52:19;;;;;;;5.47;2.83;;;;;;;28.12;38.03;100096.16;5059202;28;20091;-57
2022/08/15 09:54:50;;;;;;;5.47;2.88;;;;;;;28.19;37.83;100091.09;5065845;28;20035;-57
2022/08/15 09:57:28;;;;;;;5.60;3.17;;;;;;;28.38;36.58;100135.59;5057741;28;20053;-57
2022/08/15 10:00:17;;;;;;;4.80;3.28;;;;;;;28.45;37.04;100139.41;5048442;28;20229;-57
2022/08/15 10:02:45;;;;;;;6.20;3.13;;;;;;;28.53;37.30;100125.38;5059245;28;20060;-57
2022/08/15 10:05:59;;;;;;;6.03;3.58;;;;;;;28.42;38.82;100126.34;5059699;28;20037;-57
2022/08/15 10:08:54;;;;;;;4.18;3.38;;;;;;;28.45;37.91;100120.75;5037667;28;20025;-57
2022/08/15 10:12:19;;;;;;;9.18;4.13;;;;;;;28.24;38.34;100128.84;5074209;28;20087;-57
2022/08/15 10:14:55;;;;;;;4.13;3.65;;;;;;;28.30;38.55;100128.28;5048784;28;20029;-57
2022/08/15 10:17:25;;;;;;;4.18;3.42;;;;;;;28.35;39.63;100128.72;5066862;28;20032;-57
2022/08/15 10:19:51;;;;;;;7.25;4.22;;;;;;;28.13;38.67;100128.94;5059644;28;20114;-58
2022/08/15 10:22:24;;;;;;;6.63;4.10;;;;;;;28.11;38.29;100120.25;5058785;28;20383;-57
2022/08/15 10:25:26;;;;;;;9.32;4.43;;;;;;;28.28;38.38;100116.94;5062125;28;20088;-57
2022/08/15 10:27:59;;;;;;;5.57;4.47;;;;;;;27.87;38.31;100086.78;5055143;28;20259;-57
2022/08/15 10:30:30;;;;;;;5.80;4.47;;;;;;;27.98;38.60;100077.84;5048313;28;20075;-56
2022/08/15 10:32:58;;;;;;;6.37;4.77;;;;;;;28.28;39.69;100122.25;5062657;28;20020;-57
2022/08/15 10:35:39;;;;;;;6.38;4.65;;;;;;;28.30;38.38;100119.44;5066742;28;20031;-56
2022/08/15 10:38:09;;;;;;;4.45;4.05;;;;;;;28.21;38.89;100083.81;5066230;28;20040;-57
2022/08/15 10:40:39;;;;;;;4.65;4.25;;;;;;;28.45;39.71;100120.75;5055801;28;20033;-57
2022/08/15 10:43:38;;;;;;;7.70;4.22;;;;;;;28.28;38.75;100084.13;5055021;28;20025;-57
2022/08/15 10:46:37;;;;;;;5.43;4.78;;;;;;;28.44;39.16;100120.88;5060546;28;20028;-57
2022/08/15 10:49:21;;;;;;;7.88;4.75;;;;;;;28.34;38.78;100129.69;5054542;28;20047;-57
2022/08/15 10:52:01;;;;;;;5.78;5.18;;;;;;;28.42;37.57;100127.19;5057902;28;20029;-57
2022/08/15 10:54:32;;;;;;;6.03;5.28;;;;;;;28.41;37.73;100130.81;5064496;28;20025;-58
2022/08/15 10:56:58;;;;;;;6.82;5.10;;;;;;;28.15;37.34;100127.00;5065015;28;20029;-57
2022/08/15 10:59:41;;;;;;;8.00;5.45;;;;;;;28.02;35.96;100124.53;5056324;28;20026;-58
2022/08/15 11:02:25;;;;;;;8.52;5.95;;;;;;;28.00;36.39;100089.22;5054030;28;20346;-58
2022/08/15 11:04:52;;;;;;;13.45;5.38;;;;;;;28.30;38.08;100125.59;5053172;28;20377;-57
2022/08/15 11:07:32;;;;;;;7.60;5.57;;;;;;;28.45;36.87;100117.22;5054240;28;20033;-57
2022/08/15 11:10:02;;;;;;;9.00;6.32;;;;;;;28.35;36.88;100120.72;5062668;28;20021;-58
2022/08/15 11:12:32;;;;;;;8.27;6.78;;;;;;;28.51;36.89;100117.53;5048847;28;20230;-59
2022/08/15 11:15:12;;;;;;;10.05;6.68;;;;;;;28.26;37.29;100086.06;5053375;28;20040;-59
2022/08/15 11:17:38;;;;;;;12.02;7.65;;;;;;;28.60;35.82;100115.84;5054968;28;20025;-58
2022/08/15 11:20:16;;;;;;;8.50;6.90;;;;;;;28.51;36.16;100074.03;5053989;28;20084;-58
2022/08/15 11:22:59;;;;;;;10.35;7.03;;;;;;;28.78;37.91;100115.19;5051898;28;20040;-58
2022/08/15 11:25:35;;;;;;;11.70;9.27;;;;;;;28.48;36.31;100064.50;5060262;28;20071;-57
2022/08/15 11:28:29;;;;;;;11.35;9.68;;;;;;;28.67;36.50;100108.16;5059656;28;20375;-58
2022/08/15 11:31:11;;;;;;;16.75;11.52;;;;;;;28.59;36.62;100077.69;5059751;28;20075;-58
2022/08/15 11:33:41;;;;;;;15.93;11.93;;;;;;;28.72;36.42;100112.09;5057839;28;20095;-58
2022/08/15 11:36:15;;;;;;;13.15;11.35;;;;;;;28.44;36.21;100121.72;5084549;28;20317;-58
2022/08/15 11:38:54;;;;;;;14.27;12.45;;;;;;;28.33;36.35;100071.22;5065995;28;20379;-58
2022/08/15 11:41:41;;;;;;;13.52;11.50;;;;;;;28.74;36.48;100102.13;5060695;28;20078;-58
2022/08/15 11:44:10;;;;;;;19.38;12.90;;;;;;;28.64;37.06;100063.97;5053432;28;20029;-58
2022/08/15 11:46:37;;;;;;;17.27;13.40;;;;;;;28.70;36.97;100062.56;5056808;28;20028;-57
2022/08/15 11:49:11;;;;;;;15.02;13.07;;;;;;;29.07;36.69;100110.69;5056676;28;20296;-57
2022/08/15 11:51:45;;;;;;;17.38;12.98;;;;;;;29.03;36.72;100105.75;5057536;28;20255;-58
2022/08/15 11:54:11;;;;;;;15.93;12.25;;;;;;;29.01;37.07;100097.91;5056435;28;20020;-57
2022/08/15 11:56:47;;;;;;;14.07;11.93;;;;;;;29.16;37.55;100097.47;5065314;28;20037;-56
2022/08/15 11:59:38;;;;;;;16.58;12.73;;;;;;;29.15;38.17;100082.47;5055824;28;20095;-59